sensor_id;sensor_type;location;lat;lon;timestamp;P1;durP1;ratioP1;P2;durP2;ratioP2
16737;SDS011;17906;47.684;10.806;2023-07-13T00:00:02;2.95;;;1.80;;
16737;SDS011;17906;47.684;10.806;2023-07-13T00:02:33;2.60;;;1.80;;
16737;SDS011;17906;47.684;10.806;2023-07-13T00:05:00;3.13;;;1.90;;
16737;SDS011;17906;47.684;10.806;2023-07-13T00:07:30;2.85;;;2.17;;
16737;SDS011;17906;47.684;10.806;2023-07-13T00:09:56;2.53;;;2.00;;
16737;SDS011;17906;47.684;10.806;2023-07-13T00:12:25;3.92;;;2.30;;
16737;SDS011;17906;47.684;10.806;2023-07-13T00:14:54;5.80;;;2.10;;
16737;SDS011;17906;47.684;10.806;2023-07-13T00:17:22;3.03;;;1.98;;
16737;SDS011;17906;47.684;10.806;2023-07-13T00:19:48;7.07;;;2.30;;
16737;SDS011;17906;47.684;10.806;2023-07-13T00:22:15;4.35;;;2.15;;
16737;SDS011;17906;47.684;10.806;2023-07-13T00:24:44;5.68;;;2.17;;
16737;SDS011;17906;47.684;10.806;2023-07-13T00:27:11;3.13;;;2.22;;
16737;SDS011;17906;47.684;10.806;2023-07-13T00:29:38;2.80;;;2.10;;
16737;SDS011;17906;47.684;10.806;2023-07-13T00:32:06;2.47;;;1.95;;
16737;SDS011;17906;47.684;10.806;2023-07-13T00:34:34;5.32;;;2.38;;
16737;SDS011;17906;47.684;10.806;2023-07-13T00:37:01;4.43;;;2.20;;
16737;SDS011;17906;47.684;10.806;2023-07-13T00:39:28;6.38;;;2.90;;
16737;SDS011;17906;47.684;10.806;2023-07-13T00:41:56;3.80;;;2.30;;
16737;SDS011;17906;47.684;10.806;2023-07-13T00:44:23;5.63;;;2.30;;
16737;SDS011;17906;47.684;10.806;2023-07-13T00:46:49;4.22;;;2.25;;
16737;SDS011;17906;47.684;10.806;2023-07-13T00:49:18;4.50;;;2.25;;
16737;SDS011;17906;47.684;10.806;2023-07-13T00:51:48;6.53;;;2.35;;
16737;SDS011;17906;47.684;10.806;2023-07-13T00:54:19;6.57;;;2.60;;
16737;SDS011;17906;47.684;10.806;2023-07-13T00:56:48;3.38;;;2.40;;
16737;SDS011;17906;47.684;10.806;2023-07-13T00:59:19;8.73;;;2.38;;
16737;SDS011;17906;47.684;10.806;2023-07-13T01:01:47;6.38;;;2.42;;
16737;SDS011;17906;47.684;10.806;2023-07-13T01:04:15;3.25;;;2.38;;
16737;SDS011;17906;47.684;10.806;2023-07-13T01:06:42;2.90;;;2.38;;
16737;SDS011;17906;47.684;10.806;2023-07-13T01:09:10;14.68;;;2.17;;
16737;SDS011;17906;47.684;10.806;2023-07-13T01:11:37;3.13;;;2.20;;
16737;SDS011;17906;47.684;10.806;2023-07-13T01:14:04;3.22;;;2.17;;
16737;SDS011;17906;47.684;10.806;2023-07-13T01:16:32;2.65;;;2.30;;
16737;SDS011;17906;47.684;10.806;2023-07-13T01:19:00;5.45;;;2.35;;
16737;SDS011;17906;47.684;10.806;2023-07-13T01:21:32;6.88;;;2.60;;
16737;SDS011;17906;47.684;10.806;2023-07-13T01:24:00;4.05;;;2.30;;
16737;SDS011;17906;47.684;10.806;2023-07-13T01:26:27;5.68;;;2.17;;
16737;SDS011;17906;47.684;10.806;2023-07-13T01:28:54;5.00;;;2.50;;
16737;SDS011;17906;47.684;10.806;2023-07-13T01:31:22;4.80;;;2.85;;
16737;SDS011;17906;47.684;10.806;2023-07-13T01:33:48;5.40;;;2.70;;
16737;SDS011;17906;47.684;10.806;2023-07-13T01:36:15;5.03;;;2.80;;
16737;SDS011;17906;47.684;10.806;2023-07-13T01:38:44;3.95;;;2.60;;
16737;SDS011;17906;47.684;10.806;2023-07-13T01:41:10;4.78;;;2.70;;
16737;SDS011;17906;47.684;10.806;2023-07-13T01:43:37;4.15;;;2.63;;
16737;SDS011;17906;47.684;10.806;2023-07-13T01:46:04;5.38;;;2.72;;
16737;SDS011;17906;47.684;10.806;2023-07-13T01:48:31;4.72;;;2.47;;
16737;SDS011;17906;47.684;10.806;2023-07-13T01:50:57;5.47;;;2.40;;
16737;SDS011;17906;47.684;10.806;2023-07-13T01:53:24;3.88;;;2.47;;
16737;SDS011;17906;47.684;10.806;2023-07-13T01:55:53;5.95;;;2.75;;
16737;SDS011;17906;47.684;10.806;2023-07-13T01:58:19;4.50;;;2.60;;
16737;SDS011;17906;47.684;10.806;2023-07-13T02:00:47;5.93;;;2.50;;
16737;SDS011;17906;47.684;10.806;2023-07-13T02:03:14;5.25;;;2.38;;
16737;SDS011;17906;47.684;10.806;2023-07-13T02:05:43;10.25;;;2.58;;
16737;SDS011;17906;47.684;10.806;2023-07-13T02:08:09;4.05;;;2.35;;
16737;SDS011;17906;47.684;10.806;2023-07-13T02:10:36;3.90;;;2.25;;
16737;SDS011;17906;47.684;10.806;2023-07-13T02:13:05;4.60;;;2.40;;
16737;SDS011;17906;47.684;10.806;2023-07-13T02:15:32;4.78;;;2.33;;
16737;SDS011;17906;47.684;10.806;2023-07-13T02:17:59;3.35;;;2.40;;
16737;SDS011;17906;47.684;10.806;2023-07-13T02:20:26;3.42;;;2.47;;
16737;SDS011;17906;47.684;10.806;2023-07-13T02:22:52;3.63;;;2.13;;
16737;SDS011;17906;47.684;10.806;2023-07-13T02:25:19;3.55;;;2.20;;
16737;SDS011;17906;47.684;10.806;2023-07-13T02:27:46;4.15;;;2.40;;
16737;SDS011;17906;47.684;10.806;2023-07-13T02:30:14;8.82;;;2.70;;
16737;SDS011;17906;47.684;10.806;2023-07-13T02:32:40;4.40;;;2.20;;
16737;SDS011;17906;47.684;10.806;2023-07-13T02:35:08;4.35;;;2.63;;
16737;SDS011;17906;47.684;10.806;2023-07-13T02:37:35;8.73;;;2.90;;
16737;SDS011;17906;47.684;10.806;2023-07-13T02:40:02;4.13;;;2.47;;
16737;SDS011;17906;47.684;10.806;2023-07-13T02:42:33;2.95;;;2.22;;
16737;SDS011;17906;47.684;10.806;2023-07-13T02:45:00;4.18;;;2.60;;
16737;SDS011;17906;47.684;10.806;2023-07-13T02:47:28;4.57;;;2.75;;
16737;SDS011;17906;47.684;10.806;2023-07-13T02:49:55;3.15;;;2.30;;
16737;SDS011;17906;47.684;10.806;2023-07-13T02:52:22;5.40;;;2.42;;
16737;SDS011;17906;47.684;10.806;2023-07-13T02:54:48;5.82;;;2.85;;
16737;SDS011;17906;47.684;10.806;2023-07-13T02:57:15;8.98;;;2.72;;
16737;SDS011;17906;47.684;10.806;2023-07-13T02:59:42;7.60;;;2.35;;
16737;SDS011;17906;47.684;10.806;2023-07-13T03:02:08;4.50;;;2.70;;
16737;SDS011;17906;47.684;10.806;2023-07-13T03:04:36;3.83;;;2.67;;
16737;SDS011;17906;47.684;10.806;2023-07-13T03:07:04;7.55;;;3.03;;
16737;SDS011;17906;47.684;10.806;2023-07-13T03:09:32;4.13;;;2.88;;
16737;SDS011;17906;47.684;10.806;2023-07-13T03:11:59;4.75;;;2.80;;
16737;SDS011;17906;47.684;10.806;2023-07-13T03:14:26;4.75;;;2.90;;
16737;SDS011;17906;47.684;10.806;2023-07-13T03:16:53;3.20;;;2.65;;
16737;SDS011;17906;47.684;10.806;2023-07-13T03:19:19;7.30;;;2.92;;
16737;SDS011;17906;47.684;10.806;2023-07-13T03:21:48;5.82;;;2.63;;
16737;SDS011;17906;47.684;10.806;2023-07-13T03:24:15;5.10;;;2.80;;
16737;SDS011;17906;47.684;10.806;2023-07-13T03:26:41;4.00;;;2.65;;
16737;SDS011;17906;47.684;10.806;2023-07-13T03:29:08;7.15;;;3.20;;
16737;SDS011;17906;47.684;10.806;2023-07-13T03:31:36;4.90;;;2.90;;
16737;SDS011;17906;47.684;10.806;2023-07-13T03:34:03;4.55;;;2.60;;
16737;SDS011;17906;47.684;10.806;2023-07-13T03:36:30;9.07;;;3.10;;
16737;SDS011;17906;47.684;10.806;2023-07-13T03:39:00;6.07;;;3.67;;
16737;SDS011;17906;47.684;10.806;2023-07-13T03:41:29;6.85;;;3.55;;
16737;SDS011;17906;47.684;10.806;2023-07-13T03:43:57;5.05;;;3.33;;
16737;SDS011;17906;47.684;10.806;2023-07-13T03:46:23;6.50;;;3.05;;
16737;SDS011;17906;47.684;10.806;2023-07-13T03:48:50;4.95;;;3.42;;
16737;SDS011;17906;47.684;10.806;2023-07-13T03:51:17;7.43;;;3.00;;
16737;SDS011;17906;47.684;10.806;2023-07-13T03:53:45;8.95;;;2.53;;
16737;SDS011;17906;47.684;10.806;2023-07-13T03:56:14;5.60;;;3.10;;
16737;SDS011;17906;47.684;10.806;2023-07-13T03:58:42;5.25;;;2.50;;
16737;SDS011;17906;47.684;10.806;2023-07-13T04:01:10;9.55;;;2.75;;
16737;SDS011;17906;47.684;10.806;2023-07-13T04:03:38;7.22;;;2.90;;
16737;SDS011;17906;47.684;10.806;2023-07-13T04:06:06;10.07;;;3.25;;
16737;SDS011;17906;47.684;10.806;2023-07-13T04:08:40;4.95;;;3.20;;
16737;SDS011;17906;47.684;10.806;2023-07-13T04:11:07;3.70;;;2.70;;
16737;SDS011;17906;47.684;10.806;2023-07-13T04:13:35;5.15;;;2.80;;
16737;SDS011;17906;47.684;10.806;2023-07-13T04:16:01;3.88;;;2.85;;
16737;SDS011;17906;47.684;10.806;2023-07-13T04:18:28;4.63;;;2.97;;
16737;SDS011;17906;47.684;10.806;2023-07-13T04:20:54;5.88;;;3.03;;
16737;SDS011;17906;47.684;10.806;2023-07-13T04:23:21;4.82;;;3.08;;
16737;SDS011;17906;47.684;10.806;2023-07-13T04:25:48;6.15;;;3.65;;
16737;SDS011;17906;47.684;10.806;2023-07-13T04:28:17;9.25;;;3.90;;
16737;SDS011;17906;47.684;10.806;2023-07-13T04:30:45;5.25;;;3.13;;
16737;SDS011;17906;47.684;10.806;2023-07-13T04:33:12;5.88;;;3.33;;
16737;SDS011;17906;47.684;10.806;2023-07-13T04:35:38;6.53;;;3.80;;
16737;SDS011;17906;47.684;10.806;2023-07-13T04:38:05;5.30;;;3.70;;
16737;SDS011;17906;47.684;10.806;2023-07-13T04:40:32;7.00;;;4.50;;
16737;SDS011;17906;47.684;10.806;2023-07-13T04:42:58;5.63;;;3.65;;
16737;SDS011;17906;47.684;10.806;2023-07-13T04:45:25;5.68;;;3.28;;
16737;SDS011;17906;47.684;10.806;2023-07-13T04:47:54;6.10;;;3.25;;
16737;SDS011;17906;47.684;10.806;2023-07-13T04:50:20;8.10;;;3.58;;
16737;SDS011;17906;47.684;10.806;2023-07-13T04:52:48;4.68;;;3.10;;
16737;SDS011;17906;47.684;10.806;2023-07-13T04:55:15;8.65;;;2.83;;
16737;SDS011;17906;47.684;10.806;2023-07-13T04:57:42;5.57;;;3.25;;
16737;SDS011;17906;47.684;10.806;2023-07-13T05:00:09;4.35;;;3.45;;
16737;SDS011;17906;47.684;10.806;2023-07-13T05:02:38;5.65;;;3.00;;
16737;SDS011;17906;47.684;10.806;2023-07-13T05:05:07;5.57;;;3.03;;
16737;SDS011;17906;47.684;10.806;2023-07-13T05:07:34;6.88;;;3.50;;
16737;SDS011;17906;47.684;10.806;2023-07-13T05:10:00;6.47;;;3.58;;
16737;SDS011;17906;47.684;10.806;2023-07-13T05:12:28;5.15;;;3.60;;
16737;SDS011;17906;47.684;10.806;2023-07-13T05:14:54;5.22;;;3.17;;
16737;SDS011;17906;47.684;10.806;2023-07-13T05:17:21;4.25;;;3.40;;
16737;SDS011;17906;47.684;10.806;2023-07-13T05:19:48;6.68;;;3.55;;
16737;SDS011;17906;47.684;10.806;2023-07-13T05:22:15;4.68;;;3.42;;
16737;SDS011;17906;47.684;10.806;2023-07-13T05:24:42;4.22;;;2.80;;
16737;SDS011;17906;47.684;10.806;2023-07-13T05:27:09;6.85;;;3.78;;
16737;SDS011;17906;47.684;10.806;2023-07-13T05:29:36;5.03;;;2.95;;
16737;SDS011;17906;47.684;10.806;2023-07-13T05:32:02;5.72;;;3.28;;
16737;SDS011;17906;47.684;10.806;2023-07-13T05:34:29;7.18;;;3.75;;
16737;SDS011;17906;47.684;10.806;2023-07-13T05:36:56;10.50;;;4.47;;
16737;SDS011;17906;47.684;10.806;2023-07-13T05:39:24;5.85;;;3.50;;
16737;SDS011;17906;47.684;10.806;2023-07-13T05:41:52;5.72;;;3.38;;
16737;SDS011;17906;47.684;10.806;2023-07-13T05:44:19;7.25;;;3.90;;
16737;SDS011;17906;47.684;10.806;2023-07-13T05:46:46;6.10;;;3.45;;
16737;SDS011;17906;47.684;10.806;2023-07-13T05:49:12;7.47;;;3.38;;
16737;SDS011;17906;47.684;10.806;2023-07-13T05:51:39;7.05;;;2.60;;
16737;SDS011;17906;47.684;10.806;2023-07-13T05:54:05;5.53;;;2.70;;
16737;SDS011;17906;47.684;10.806;2023-07-13T05:56:33;7.35;;;2.60;;
16737;SDS011;17906;47.684;10.806;2023-07-13T05:59:00;6.10;;;3.13;;
16737;SDS011;17906;47.684;10.806;2023-07-13T06:01:27;4.55;;;2.40;;
16737;SDS011;17906;47.684;10.806;2023-07-13T06:03:56;5.13;;;2.65;;
16737;SDS011;17906;47.684;10.806;2023-07-13T06:06:22;5.75;;;3.00;;
16737;SDS011;17906;47.684;10.806;2023-07-13T06:08:49;4.88;;;2.40;;
16737;SDS011;17906;47.684;10.806;2023-07-13T06:11:17;3.47;;;2.58;;
16737;SDS011;17906;47.684;10.806;2023-07-13T06:13:47;10.10;;;3.63;;
16737;SDS011;17906;47.684;10.806;2023-07-13T06:16:15;5.57;;;2.88;;
16737;SDS011;17906;47.684;10.806;2023-07-13T06:18:42;4.85;;;2.85;;
16737;SDS011;17906;47.684;10.806;2023-07-13T06:21:13;5.57;;;2.92;;
16737;SDS011;17906;47.684;10.806;2023-07-13T06:23:53;5.47;;;2.33;;
16737;SDS011;17906;47.684;10.806;2023-07-13T06:26:20;5.63;;;2.78;;
16737;SDS011;17906;47.684;10.806;2023-07-13T06:28:48;4.47;;;2.90;;
16737;SDS011;17906;47.684;10.806;2023-07-13T06:31:15;7.47;;;2.60;;
16737;SDS011;17906;47.684;10.806;2023-07-13T06:33:42;4.43;;;2.40;;
16737;SDS011;17906;47.684;10.806;2023-07-13T06:36:09;6.95;;;2.83;;
16737;SDS011;17906;47.684;10.806;2023-07-13T06:38:37;3.70;;;2.80;;
16737;SDS011;17906;47.684;10.806;2023-07-13T06:41:04;5.63;;;3.08;;
16737;SDS011;17906;47.684;10.806;2023-07-13T06:43:32;5.40;;;2.80;;
16737;SDS011;17906;47.684;10.806;2023-07-13T06:46:00;6.13;;;2.75;;
16737;SDS011;17906;47.684;10.806;2023-07-13T06:48:27;4.30;;;2.90;;
16737;SDS011;17906;47.684;10.806;2023-07-13T06:50:54;4.93;;;2.95;;
16737;SDS011;17906;47.684;10.806;2023-07-13T06:53:21;4.72;;;2.40;;
16737;SDS011;17906;47.684;10.806;2023-07-13T06:55:49;5.45;;;2.72;;
16737;SDS011;17906;47.684;10.806;2023-07-13T06:58:16;4.80;;;3.10;;
16737;SDS011;17906;47.684;10.806;2023-07-13T07:00:44;6.40;;;3.67;;
16737;SDS011;17906;47.684;10.806;2023-07-13T07:03:12;8.10;;;2.80;;
16737;SDS011;17906;47.684;10.806;2023-07-13T07:05:39;6.82;;;3.03;;
16737;SDS011;17906;47.684;10.806;2023-07-13T07:08:06;3.90;;;2.80;;
16737;SDS011;17906;47.684;10.806;2023-07-13T07:10:33;5.93;;;3.20;;
16737;SDS011;17906;47.684;10.806;2023-07-13T07:13:00;6.30;;;3.17;;
16737;SDS011;17906;47.684;10.806;2023-07-13T07:15:27;6.00;;;3.10;;
16737;SDS011;17906;47.684;10.806;2023-07-13T07:17:54;6.10;;;3.10;;
16737;SDS011;17906;47.684;10.806;2023-07-13T07:20:22;5.65;;;3.35;;
16737;SDS011;17906;47.684;10.806;2023-07-13T07:22:49;5.13;;;2.85;;
16737;SDS011;17906;47.684;10.806;2023-07-13T07:25:16;4.25;;;2.40;;
16737;SDS011;17906;47.684;10.806;2023-07-13T07:27:43;4.38;;;2.58;;
16737;SDS011;17906;47.684;10.806;2023-07-13T07:30:10;4.55;;;2.75;;
16737;SDS011;17906;47.684;10.806;2023-07-13T07:32:37;9.07;;;3.00;;
16737;SDS011;17906;47.684;10.806;2023-07-13T07:35:04;5.30;;;2.83;;
16737;SDS011;17906;47.684;10.806;2023-07-13T07:37:33;4.55;;;2.50;;
16737;SDS011;17906;47.684;10.806;2023-07-13T07:40:00;6.18;;;2.45;;
16737;SDS011;17906;47.684;10.806;2023-07-13T07:42:27;3.90;;;2.70;;
16737;SDS011;17906;47.684;10.806;2023-07-13T07:44:54;6.65;;;2.72;;
16737;SDS011;17906;47.684;10.806;2023-07-13T07:47:21;6.28;;;2.60;;
16737;SDS011;17906;47.684;10.806;2023-07-13T07:49:48;6.93;;;2.80;;
16737;SDS011;17906;47.684;10.806;2023-07-13T07:52:15;4.82;;;2.70;;
16737;SDS011;17906;47.684;10.806;2023-07-13T07:54:43;5.53;;;2.65;;
16737;SDS011;17906;47.684;10.806;2023-07-13T07:57:09;5.03;;;2.65;;
16737;SDS011;17906;47.684;10.806;2023-07-13T07:59:36;6.07;;;2.83;;
16737;SDS011;17906;47.684;10.806;2023-07-13T08:02:04;5.07;;;2.80;;
16737;SDS011;17906;47.684;10.806;2023-07-13T08:04:31;7.25;;;3.00;;
16737;SDS011;17906;47.684;10.806;2023-07-13T08:06:57;8.55;;;3.13;;
16737;SDS011;17906;47.684;10.806;2023-07-13T08:09:24;6.75;;;3.35;;
16737;SDS011;17906;47.684;10.806;2023-07-13T08:11:52;7.30;;;3.20;;
16737;SDS011;17906;47.684;10.806;2023-07-13T08:14:19;6.38;;;3.20;;
16737;SDS011;17906;47.684;10.806;2023-07-13T08:16:46;9.57;;;3.15;;
16737;SDS011;17906;47.684;10.806;2023-07-13T08:19:13;3.83;;;2.58;;
16737;SDS011;17906;47.684;10.806;2023-07-13T08:21:39;8.15;;;2.85;;
16737;SDS011;17906;47.684;10.806;2023-07-13T08:24:07;6.13;;;3.03;;
16737;SDS011;17906;47.684;10.806;2023-07-13T08:26:34;5.50;;;3.00;;
16737;SDS011;17906;47.684;10.806;2023-07-13T08:29:02;4.53;;;2.80;;
16737;SDS011;17906;47.684;10.806;2023-07-13T08:31:28;7.63;;;2.83;;
16737;SDS011;17906;47.684;10.806;2023-07-13T08:33:55;4.57;;;2.78;;
16737;SDS011;17906;47.684;10.806;2023-07-13T08:36:22;6.85;;;2.97;;
16737;SDS011;17906;47.684;10.806;2023-07-13T08:38:48;5.53;;;2.80;;
16737;SDS011;17906;47.684;10.806;2023-07-13T08:41:16;6.18;;;3.05;;
16737;SDS011;17906;47.684;10.806;2023-07-13T08:43:45;4.27;;;2.40;;
16737;SDS011;17906;47.684;10.806;2023-07-13T08:46:16;8.73;;;3.97;;
16737;SDS011;17906;47.684;10.806;2023-07-13T08:48:48;10.07;;;3.70;;
16737;SDS011;17906;47.684;10.806;2023-07-13T08:51:22;6.70;;;3.13;;
16737;SDS011;17906;47.684;10.806;2023-07-13T08:53:57;5.97;;;2.90;;
16737;SDS011;17906;47.684;10.806;2023-07-13T08:56:27;5.30;;;3.15;;
16737;SDS011;17906;47.684;10.806;2023-07-13T08:58:55;7.05;;;3.20;;
16737;SDS011;17906;47.684;10.806;2023-07-13T09:01:27;4.28;;;2.50;;
16737;SDS011;17906;47.684;10.806;2023-07-13T09:04:01;4.07;;;2.25;;
16737;SDS011;17906;47.684;10.806;2023-07-13T09:06:36;4.57;;;2.40;;
16737;SDS011;17906;47.684;10.806;2023-07-13T09:09:10;5.15;;;2.70;;
16737;SDS011;17906;47.684;10.806;2023-07-13T09:11:49;4.43;;;2.65;;
16737;SDS011;17906;47.684;10.806;2023-07-13T09:14:31;4.40;;;3.10;;
16737;SDS011;17906;47.684;10.806;2023-07-13T09:17:04;4.22;;;2.78;;
16737;SDS011;17906;47.684;10.806;2023-07-13T09:19:36;13.55;;;2.80;;
16737;SDS011;17906;47.684;10.806;2023-07-13T09:22:04;5.15;;;2.70;;
16737;SDS011;17906;47.684;10.806;2023-07-13T09:24:38;4.45;;;2.63;;
16737;SDS011;17906;47.684;10.806;2023-07-13T09:27:14;4.82;;;2.53;;
16737;SDS011;17906;47.684;10.806;2023-07-13T09:29:45;4.07;;;2.53;;
16737;SDS011;17906;47.684;10.806;2023-07-13T09:32:19;5.25;;;2.60;;
16737;SDS011;17906;47.684;10.806;2023-07-13T09:34:50;5.22;;;2.80;;
16737;SDS011;17906;47.684;10.806;2023-07-13T09:37:18;7.35;;;2.83;;
16737;SDS011;17906;47.684;10.806;2023-07-13T09:39:47;6.05;;;2.70;;
16737;SDS011;17906;47.684;10.806;2023-07-13T09:42:16;5.55;;;2.40;;
16737;SDS011;17906;47.684;10.806;2023-07-13T09:44:51;3.72;;;2.00;;
16737;SDS011;17906;47.684;10.806;2023-07-13T09:47:21;2.90;;;2.00;;
16737;SDS011;17906;47.684;10.806;2023-07-13T09:49:53;3.97;;;2.55;;
16737;SDS011;17906;47.684;10.806;2023-07-13T09:52:21;5.43;;;3.05;;
16737;SDS011;17906;47.684;10.806;2023-07-13T09:54:48;5.38;;;2.65;;
16737;SDS011;17906;47.684;10.806;2023-07-13T09:57:17;3.92;;;2.90;;
16737;SDS011;17906;47.684;10.806;2023-07-13T09:59:45;6.53;;;3.20;;
16737;SDS011;17906;47.684;10.806;2023-07-13T10:02:23;7.38;;;3.33;;
16737;SDS011;17906;47.684;10.806;2023-07-13T10:04:55;6.28;;;3.53;;
16737;SDS011;17906;47.684;10.806;2023-07-13T10:07:23;6.75;;;3.63;;
16737;SDS011;17906;47.684;10.806;2023-07-13T10:09:51;6.47;;;3.78;;
16737;SDS011;17906;47.684;10.806;2023-07-13T10:12:19;6.10;;;3.53;;
16737;SDS011;17906;47.684;10.806;2023-07-13T10:14:48;4.97;;;3.40;;
16737;SDS011;17906;47.684;10.806;2023-07-13T10:17:18;6.85;;;4.25;;
16737;SDS011;17906;47.684;10.806;2023-07-13T10:19:53;6.63;;;3.85;;
16737;SDS011;17906;47.684;10.806;2023-07-13T10:22:22;5.82;;;4.00;;
16737;SDS011;17906;47.684;10.806;2023-07-13T10:24:53;5.72;;;3.72;;
16737;SDS011;17906;47.684;10.806;2023-07-13T10:27:23;5.13;;;3.85;;
16737;SDS011;17906;47.684;10.806;2023-07-13T10:29:59;5.93;;;3.67;;
16737;SDS011;17906;47.684;10.806;2023-07-13T10:32:28;5.18;;;3.28;;
16737;SDS011;17906;47.684;10.806;2023-07-13T10:34:56;4.63;;;3.38;;
16737;SDS011;17906;47.684;10.806;2023-07-13T10:37:26;5.22;;;3.88;;
16737;SDS011;17906;47.684;10.806;2023-07-13T10:39:56;4.15;;;3.35;;
16737;SDS011;17906;47.684;10.806;2023-07-13T10:42:27;8.05;;;3.75;;
16737;SDS011;17906;47.684;10.806;2023-07-13T10:44:56;4.75;;;3.60;;
16737;SDS011;17906;47.684;10.806;2023-07-13T10:47:23;7.22;;;3.80;;
16737;SDS011;17906;47.684;10.806;2023-07-13T10:49:54;7.50;;;3.70;;
16737;SDS011;17906;47.684;10.806;2023-07-13T10:52:40;5.97;;;3.45;;
16737;SDS011;17906;47.684;10.806;2023-07-13T10:57:59;4.90;;;3.40;;
16737;SDS011;17906;47.684;10.806;2023-07-13T11:00:30;7.30;;;3.90;;
16737;SDS011;17906;47.684;10.806;2023-07-13T11:03:00;5.03;;;3.53;;
16737;SDS011;17906;47.684;10.806;2023-07-13T11:05:30;5.53;;;3.35;;
16737;SDS011;17906;47.684;10.806;2023-07-13T11:08:03;5.43;;;4.00;;
16737;SDS011;17906;47.684;10.806;2023-07-13T11:10:49;7.90;;;3.72;;
16737;SDS011;17906;47.684;10.806;2023-07-13T11:13:37;9.85;;;3.55;;
16737;SDS011;17906;47.684;10.806;2023-07-13T11:16:33;7.28;;;3.40;;
16737;SDS011;17906;47.684;10.806;2023-07-13T11:22:16;5.30;;;2.95;;
16737;SDS011;17906;47.684;10.806;2023-07-13T11:24:49;4.53;;;3.08;;
16737;SDS011;17906;47.684;10.806;2023-07-13T11:27:37;5.43;;;2.80;;
16737;SDS011;17906;47.684;10.806;2023-07-13T11:30:24;4.70;;;2.42;;
16737;SDS011;17906;47.684;10.806;2023-07-13T11:33:11;4.53;;;2.72;;
16737;SDS011;17906;47.684;10.806;2023-07-13T11:35:43;6.65;;;2.53;;
16737;SDS011;17906;47.684;10.806;2023-07-13T11:38:30;5.22;;;2.10;;
16737;SDS011;17906;47.684;10.806;2023-07-13T11:41:00;4.35;;;2.58;;
16737;SDS011;17906;47.684;10.806;2023-07-13T11:43:31;5.72;;;2.10;;
16737;SDS011;17906;47.684;10.806;2023-07-13T11:46:11;6.25;;;2.45;;
16737;SDS011;17906;47.684;10.806;2023-07-13T11:48:40;3.75;;;2.35;;
16737;SDS011;17906;47.684;10.806;2023-07-13T11:51:07;3.10;;;2.30;;
16737;SDS011;17906;47.684;10.806;2023-07-13T11:53:47;7.07;;;2.30;;
16737;SDS011;17906;47.684;10.806;2023-07-13T11:56:16;5.38;;;2.20;;
16737;SDS011;17906;47.684;10.806;2023-07-13T11:58:43;4.18;;;2.65;;
16737;SDS011;17906;47.684;10.806;2023-07-13T12:01:17;4.18;;;2.50;;
16737;SDS011;17906;47.684;10.806;2023-07-13T12:03:47;4.97;;;2.28;;
16737;SDS011;17906;47.684;10.806;2023-07-13T12:06:26;2.53;;;1.92;;
16737;SDS011;17906;47.684;10.806;2023-07-13T12:08:58;4.70;;;2.65;;
16737;SDS011;17906;47.684;10.806;2023-07-13T12:11:28;7.85;;;2.72;;
16737;SDS011;17906;47.684;10.806;2023-07-13T12:13:56;6.07;;;2.88;;
16737;SDS011;17906;47.684;10.806;2023-07-13T12:16:25;5.15;;;2.60;;
16737;SDS011;17906;47.684;10.806;2023-07-13T12:18:54;3.90;;;2.70;;
16737;SDS011;17906;47.684;10.806;2023-07-13T12:21:24;4.28;;;2.53;;
16737;SDS011;17906;47.684;10.806;2023-07-13T12:24:00;3.30;;;2.35;;
16737;SDS011;17906;47.684;10.806;2023-07-13T12:26:29;7.65;;;2.70;;
16737;SDS011;17906;47.684;10.806;2023-07-13T12:28:58;5.55;;;2.70;;
16737;SDS011;17906;47.684;10.806;2023-07-13T12:31:29;4.70;;;2.63;;
16737;SDS011;17906;47.684;10.806;2023-07-13T12:33:58;6.13;;;2.70;;
16737;SDS011;17906;47.684;10.806;2023-07-13T12:36:29;5.40;;;3.05;;
16737;SDS011;17906;47.684;10.806;2023-07-13T12:39:01;4.22;;;2.90;;
16737;SDS011;17906;47.684;10.806;2023-07-13T12:41:33;3.85;;;2.45;;
16737;SDS011;17906;47.684;10.806;2023-07-13T12:44:00;5.80;;;2.58;;
16737;SDS011;17906;47.684;10.806;2023-07-13T12:46:26;4.47;;;2.90;;
16737;SDS011;17906;47.684;10.806;2023-07-13T12:48:56;5.30;;;3.00;;
16737;SDS011;17906;47.684;10.806;2023-07-13T12:51:24;6.45;;;3.00;;
16737;SDS011;17906;47.684;10.806;2023-07-13T12:53:56;4.38;;;2.88;;
16737;SDS011;17906;47.684;10.806;2023-07-13T12:56:26;7.40;;;2.70;;
16737;SDS011;17906;47.684;10.806;2023-07-13T12:58:57;3.55;;;2.60;;
16737;SDS011;17906;47.684;10.806;2023-07-13T13:01:26;4.22;;;3.03;;
16737;SDS011;17906;47.684;10.806;2023-07-13T13:03:54;3.58;;;2.65;;
16737;SDS011;17906;47.684;10.806;2023-07-13T13:06:22;5.53;;;2.80;;
16737;SDS011;17906;47.684;10.806;2023-07-13T13:08:51;5.50;;;2.47;;
16737;SDS011;17906;47.684;10.806;2023-07-13T13:11:20;7.30;;;3.05;;
16737;SDS011;17906;47.684;10.806;2023-07-13T13:13:51;4.93;;;2.80;;
16737;SDS011;17906;47.684;10.806;2023-07-13T13:16:20;4.05;;;2.65;;
16737;SDS011;17906;47.684;10.806;2023-07-13T13:18:50;5.05;;;2.55;;
16737;SDS011;17906;47.684;10.806;2023-07-13T13:21:18;5.82;;;2.95;;
16737;SDS011;17906;47.684;10.806;2023-07-13T13:23:45;4.68;;;2.47;;
16737;SDS011;17906;47.684;10.806;2023-07-13T13:26:13;4.45;;;2.90;;
16737;SDS011;17906;47.684;10.806;2023-07-13T13:28:41;3.88;;;2.47;;
16737;SDS011;17906;47.684;10.806;2023-07-13T13:31:10;4.90;;;2.90;;
16737;SDS011;17906;47.684;10.806;2023-07-13T13:33:39;5.30;;;2.70;;
16737;SDS011;17906;47.684;10.806;2023-07-13T13:36:12;5.78;;;3.20;;
16737;SDS011;17906;47.684;10.806;2023-07-13T13:38:42;6.22;;;2.67;;
16737;SDS011;17906;47.684;10.806;2023-07-13T13:41:10;4.82;;;2.90;;
16737;SDS011;17906;47.684;10.806;2023-07-13T13:43:46;5.22;;;2.80;;
16737;SDS011;17906;47.684;10.806;2023-07-13T13:46:15;5.15;;;3.15;;
16737;SDS011;17906;47.684;10.806;2023-07-13T13:48:43;4.07;;;2.63;;
16737;SDS011;17906;47.684;10.806;2023-07-13T13:51:14;4.32;;;3.10;;
16737;SDS011;17906;47.684;10.806;2023-07-13T13:53:42;4.07;;;2.67;;
16737;SDS011;17906;47.684;10.806;2023-07-13T13:56:10;4.25;;;2.63;;
16737;SDS011;17906;47.684;10.806;2023-07-13T13:58:37;3.95;;;2.63;;
16737;SDS011;17906;47.684;10.806;2023-07-13T14:01:04;5.35;;;2.88;;
16737;SDS011;17906;47.684;10.806;2023-07-13T14:03:39;3.88;;;3.20;;
16737;SDS011;17906;47.684;10.806;2023-07-13T14:06:11;6.13;;;2.80;;
16737;SDS011;17906;47.684;10.806;2023-07-13T14:08:38;9.30;;;3.50;;
16737;SDS011;17906;47.684;10.806;2023-07-13T14:11:05;6.13;;;2.95;;
16737;SDS011;17906;47.684;10.806;2023-07-13T14:13:38;6.70;;;3.17;;
16737;SDS011;17906;47.684;10.806;2023-07-13T14:16:09;5.00;;;2.80;;
16737;SDS011;17906;47.684;10.806;2023-07-13T14:18:39;6.72;;;3.15;;
16737;SDS011;17906;47.684;10.806;2023-07-13T14:21:08;7.60;;;3.08;;
16737;SDS011;17906;47.684;10.806;2023-07-13T14:23:38;6.10;;;2.88;;
16737;SDS011;17906;47.684;10.806;2023-07-13T14:26:07;3.97;;;2.55;;
16737;SDS011;17906;47.684;10.806;2023-07-13T14:28:37;6.88;;;2.90;;
16737;SDS011;17906;47.684;10.806;2023-07-13T14:31:07;4.85;;;2.60;;
16737;SDS011;17906;47.684;10.806;2023-07-13T14:33:34;6.68;;;3.15;;
16737;SDS011;17906;47.684;10.806;2023-07-13T14:36:02;4.88;;;2.95;;
16737;SDS011;17906;47.684;10.806;2023-07-13T14:38:41;4.38;;;3.05;;
16737;SDS011;17906;47.684;10.806;2023-07-13T14:41:08;5.68;;;2.70;;
16737;SDS011;17906;47.684;10.806;2023-07-13T14:43:35;5.05;;;2.83;;
16737;SDS011;17906;47.684;10.806;2023-07-13T14:46:01;6.22;;;2.85;;
16737;SDS011;17906;47.684;10.806;2023-07-13T14:48:29;4.18;;;2.80;;